sensor_id;sensor_type;location;lat;lon;timestamp;temperature;humidity
21559;DHT22;10940;48.890;8.240;2022-08-30T00:00:40;20.20;99.90
21559;DHT22;10940;48.890;8.240;2022-08-30T00:03:25;20.10;99.90
21559;DHT22;10940;48.890;8.240;2022-08-30T00:05:52;20.00;99.90
21559;DHT22;10940;48.890;8.240;2022-08-30T00:08:17;20.00;99.90
21559;DHT22;10940;48.890;8.240;2022-08-30T00:10:43;20.00;99.90
21559;DHT22;10940;48.890;8.240;2022-08-30T00:13:09;20.00;99.90
21559;DHT22;10940;48.890;8.240;2022-08-30T00:15:37;20.00;99.90
21559;DHT22;10940;48.890;8.240;2022-08-30T00:18:02;20.00;99.90
21559;DHT22;10940;48.890;8.240;2022-08-30T00:20:30;20.00;99.90
21559;DHT22;10940;48.890;8.240;2022-08-30T00:22:56;20.00;99.90
21559;DHT22;10940;48.890;8.240;2022-08-30T00:25:22;20.00;99.90
21559;DHT22;10940;48.890;8.240;2022-08-30T00:27:49;19.90;99.90
21559;DHT22;10940;48.890;8.240;2022-08-30T00:30:17;19.90;99.90
21559;DHT22;10940;48.890;8.240;2022-08-30T00:32:43;19.90;99.90
21559;DHT22;10940;48.890;8.240;2022-08-30T00:35:10;19.90;99.90
21559;DHT22;10940;48.890;8.240;2022-08-30T00:37:37;19.80;99.90
21559;DHT22;10940;48.890;8.240;2022-08-30T00:40:03;19.80;99.90
21559;DHT22;10940;48.890;8.240;2022-08-30T00:42:30;19.80;99.90
21559;DHT22;10940;48.890;8.240;2022-08-30T00:44:56;19.80;99.90
21559;DHT22;10940;48.890;8.240;2022-08-30T00:47:22;19.90;99.90
21559;DHT22;10940;48.890;8.240;2022-08-30T00:49:50;19.80;99.90
21559;DHT22;10940;48.890;8.240;2022-08-30T00:52:18;19.80;99.90
21559;DHT22;10940;48.890;8.240;2022-08-30T00:54:47;19.80;99.90
21559;DHT22;10940;48.890;8.240;2022-08-30T00:57:14;19.80;99.90
21559;DHT22;10940;48.890;8.240;2022-08-30T00:59:42;19.70;99.90
21559;DHT22;10940;48.890;8.240;2022-08-30T01:02:09;19.70;99.90
21559;DHT22;10940;48.890;8.240;2022-08-30T01:04:36;19.70;99.90
21559;DHT22;10940;48.890;8.240;2022-08-30T01:07:02;19.70;99.90
21559;DHT22;10940;48.890;8.240;2022-08-30T01:09:28;19.70;99.90
21559;DHT22;10940;48.890;8.240;2022-08-30T01:11:54;19.70;99.90
21559;DHT22;10940;48.890;8.240;2022-08-30T01:14:21;19.60;99.90
21559;DHT22;10940;48.890;8.240;2022-08-30T01:16:48;19.60;99.90
21559;DHT22;10940;48.890;8.240;2022-08-30T01:19:45;19.60;99.90
21559;DHT22;10940;48.890;8.240;2022-08-30T01:22:54;19.60;99.90
21559;DHT22;10940;48.890;8.240;2022-08-30T01:25:23;19.60;99.90
21559;DHT22;10940;48.890;8.240;2022-08-30T01:27:52;19.60;99.90
21559;DHT22;10940;48.890;8.240;2022-08-30T01:30:19;19.60;99.90
21559;DHT22;10940;48.890;8.240;2022-08-30T01:32:47;19.50;99.90
21559;DHT22;10940;48.890;8.240;2022-08-30T01:35:16;19.50;99.90
21559;DHT22;10940;48.890;8.240;2022-08-30T01:37:43;19.50;99.90
21559;DHT22;10940;48.890;8.240;2022-08-30T01:40:11;19.50;99.90
21559;DHT22;10940;48.890;8.240;2022-08-30T01:42:37;19.50;99.90
21559;DHT22;10940;48.890;8.240;2022-08-30T01:45:04;19.50;99.90
21559;DHT22;10940;48.890;8.240;2022-08-30T01:47:30;19.50;99.90
21559;DHT22;10940;48.890;8.240;2022-08-30T01:49:55;19.40;99.90
21559;DHT22;10940;48.890;8.240;2022-08-30T01:52:22;19.50;99.90
21559;DHT22;10940;48.890;8.240;2022-08-30T01:54:49;19.40;99.90
21559;DHT22;10940;48.890;8.240;2022-08-30T01:57:18;19.40;99.90
21559;DHT22;10940;48.890;8.240;2022-08-30T01:59:44;19.30;99.90
21559;DHT22;10940;48.890;8.240;2022-08-30T02:02:13;19.30;99.90
21559;DHT22;10940;48.890;8.240;2022-08-30T02:04:41;19.30;99.90
21559;DHT22;10940;48.890;8.240;2022-08-30T02:07:06;19.40;99.90
21559;DHT22;10940;48.890;8.240;2022-08-30T02:09:32;19.30;99.90
21559;DHT22;10940;48.890;8.240;2022-08-30T02:11:58;19.30;99.90
21559;DHT22;10940;48.890;8.240;2022-08-30T02:14:23;19.30;99.90
21559;DHT22;10940;48.890;8.240;2022-08-30T02:16:49;19.20;99.90
21559;DHT22;10940;48.890;8.240;2022-08-30T02:19:14;19.20;99.90
21559;DHT22;10940;48.890;8.240;2022-08-30T02:21:40;19.30;99.90
21559;DHT22;10940;48.890;8.240;2022-08-30T02:24:06;19.20;99.90
21559;DHT22;10940;48.890;8.240;2022-08-30T02:26:32;19.20;99.90
21559;DHT22;10940;48.890;8.240;2022-08-30T02:28:57;19.20;99.90
21559;DHT22;10940;48.890;8.240;2022-08-30T02:31:24;19.10;99.90
21559;DHT22;10940;48.890;8.240;2022-08-30T02:33:51;19.10;99.90
21559;DHT22;10940;48.890;8.240;2022-08-30T02:36:18;19.10;99.90
21559;DHT22;10940;48.890;8.240;2022-08-30T02:38:45;19.10;99.90
21559;DHT22;10940;48.890;8.240;2022-08-30T02:41:11;19.10;99.90
21559;DHT22;10940;48.890;8.240;2022-08-30T02:43:36;19.00;99.90
21559;DHT22;10940;48.890;8.240;2022-08-30T02:46:02;19.00;99.90
21559;DHT22;10940;48.890;8.240;2022-08-30T02:48:27;18.90;99.90
21559;DHT22;10940;48.890;8.240;2022-08-30T02:50:53;18.90;99.90
21559;DHT22;10940;48.890;8.240;2022-08-30T02:53:19;18.90;99.90
21559;DHT22;10940;48.890;8.240;2022-08-30T02:55:46;18.90;99.90
21559;DHT22;10940;48.890;8.240;2022-08-30T02:58:11;18.80;99.90
21559;DHT22;10940;48.890;8.240;2022-08-30T03:00:38;18.80;99.90
21559;DHT22;10940;48.890;8.240;2022-08-30T03:03:04;18.80;99.90
21559;DHT22;10940;48.890;8.240;2022-08-30T03:05:32;18.70;99.90
21559;DHT22;10940;48.890;8.240;2022-08-30T03:07:58;18.60;99.90
21559;DHT22;10940;48.890;8.240;2022-08-30T03:10:24;18.60;99.90
21559;DHT22;10940;48.890;8.240;2022-08-30T03:12:52;18.60;99.90
21559;DHT22;10940;48.890;8.240;2022-08-30T03:15:18;18.50;99.90
21559;DHT22;10940;48.890;8.240;2022-08-30T03:17:44;18.50;99.90
21559;DHT22;10940;48.890;8.240;2022-08-30T03:20:10;18.50;99.90
21559;DHT22;10940;48.890;8.240;2022-08-30T03:22:36;18.40;99.90
21559;DHT22;10940;48.890;8.240;2022-08-30T03:25:03;18.40;99.90
21559;DHT22;10940;48.890;8.240;2022-08-30T03:27:31;18.30;99.90
21559;DHT22;10940;48.890;8.240;2022-08-30T03:29:56;18.30;99.90
21559;DHT22;10940;48.890;8.240;2022-08-30T03:32:23;18.30;99.90
21559;DHT22;10940;48.890;8.240;2022-08-30T03:34:48;18.20;99.90
21559;DHT22;10940;48.890;8.240;2022-08-30T03:37:15;18.20;99.90
21559;DHT22;10940;48.890;8.240;2022-08-30T03:39:40;18.20;99.90
21559;DHT22;10940;48.890;8.240;2022-08-30T03:42:06;18.20;99.90
21559;DHT22;10940;48.890;8.240;2022-08-30T03:44:32;18.10;99.90
21559;DHT22;10940;48.890;8.240;2022-08-30T03:46:58;18.10;99.90
21559;DHT22;10940;48.890;8.240;2022-08-30T03:49:23;18.10;99.90
21559;DHT22;10940;48.890;8.240;2022-08-30T03:51:49;18.00;99.90
21559;DHT22;10940;48.890;8.240;2022-08-30T03:54:16;18.00;99.90
21559;DHT22;10940;48.890;8.240;2022-08-30T03:56:42;18.00;99.90
21559;DHT22;10940;48.890;8.240;2022-08-30T03:59:07;18.00;99.90
21559;DHT22;10940;48.890;8.240;2022-08-30T04:01:33;18.00;99.90
21559;DHT22;10940;48.890;8.240;2022-08-30T04:03:59;17.90;99.90
21559;DHT22;10940;48.890;8.240;2022-08-30T04:06:25;17.90;99.90
21559;DHT22;10940;48.890;8.240;2022-08-30T04:08:51;17.80;99.90
21559;DHT22;10940;48.890;8.240;2022-08-30T04:11:17;17.80;99.90
21559;DHT22;10940;48.890;8.240;2022-08-30T04:13:43;17.80;99.90
21559;DHT22;10940;48.890;8.240;2022-08-30T04:16:09;17.80;99.90
21559;DHT22;10940;48.890;8.240;2022-08-30T04:18:35;17.70;99.90
21559;DHT22;10940;48.890;8.240;2022-08-30T04:21:01;17.70;99.90
21559;DHT22;10940;48.890;8.240;2022-08-30T04:23:27;17.70;99.90
21559;DHT22;10940;48.890;8.240;2022-08-30T04:25:53;17.70;99.90
21559;DHT22;10940;48.890;8.240;2022-08-30T04:28:19;17.70;99.90
21559;DHT22;10940;48.890;8.240;2022-08-30T04:30:45;17.70;99.90
21559;DHT22;10940;48.890;8.240;2022-08-30T04:33:12;17.70;99.90
21559;DHT22;10940;48.890;8.240;2022-08-30T04:35:43;17.70;99.90
21559;DHT22;10940;48.890;8.240;2022-08-30T04:38:09;17.60;99.90
21559;DHT22;10940;48.890;8.240;2022-08-30T04:40:35;17.70;99.90
21559;DHT22;10940;48.890;8.240;2022-08-30T04:43:02;17.60;99.90
21559;DHT22;10940;48.890;8.240;2022-08-30T04:45:28;17.70;99.90
21559;DHT22;10940;48.890;8.240;2022-08-30T04:47:53;17.60;99.90
21559;DHT22;10940;48.890;8.240;2022-08-30T04:50:19;17.60;99.90
21559;DHT22;10940;48.890;8.240;2022-08-30T04:52:45;17.60;99.90
21559;DHT22;10940;48.890;8.240;2022-08-30T04:55:12;17.60;99.90
21559;DHT22;10940;48.890;8.240;2022-08-30T04:57:39;17.60;99.90
21559;DHT22;10940;48.890;8.240;2022-08-30T05:00:09;17.60;99.90
21559;DHT22;10940;48.890;8.240;2022-08-30T05:02:36;17.60;99.90
21559;DHT22;10940;48.890;8.240;2022-08-30T05:05:03;17.60;99.90
21559;DHT22;10940;48.890;8.240;2022-08-30T05:07:47;17.60;99.90
21559;DHT22;10940;48.890;8.240;2022-08-30T05:10:13;17.60;99.90
21559;DHT22;10940;48.890;8.240;2022-08-30T05:12:39;17.60;99.90
21559;DHT22;10940;48.890;8.240;2022-08-30T05:15:05;17.60;99.90
21559;DHT22;10940;48.890;8.240;2022-08-30T05:17:31;17.60;99.90
21559;DHT22;10940;48.890;8.240;2022-08-30T05:19:57;17.60;99.90
21559;DHT22;10940;48.890;8.240;2022-08-30T05:22:25;17.70;99.90
21559;DHT22;10940;48.890;8.240;2022-08-30T05:24:50;17.70;99.90
21559;DHT22;10940;48.890;8.240;2022-08-30T05:27:16;17.80;99.90
21559;DHT22;10940;48.890;8.240;2022-08-30T05:29:42;17.90;99.90
21559;DHT22;10940;48.890;8.240;2022-08-30T05:32:07;18.00;99.90
21559;DHT22;10940;48.890;8.240;2022-08-30T05:34:33;18.00;99.90
21559;DHT22;10940;48.890;8.240;2022-08-30T05:36:59;18.00;99.90
21559;DHT22;10940;48.890;8.240;2022-08-30T05:39:27;18.10;99.90
21559;DHT22;10940;48.890;8.240;2022-08-30T05:41:55;18.10;99.90
21559;DHT22;10940;48.890;8.240;2022-08-30T05:44:21;18.10;99.90
21559;DHT22;10940;48.890;8.240;2022-08-30T05:46:47;18.20;99.90
21559;DHT22;10940;48.890;8.240;2022-08-30T05:49:13;18.20;99.90
21559;DHT22;10940;48.890;8.240;2022-08-30T05:51:40;18.30;99.90
21559;DHT22;10940;48.890;8.240;2022-08-30T05:54:06;18.30;99.90
21559;DHT22;10940;48.890;8.240;2022-08-30T05:56:34;18.30;99.90
21559;DHT22;10940;48.890;8.240;2022-08-30T05:59:02;18.40;99.90
21559;DHT22;10940;48.890;8.240;2022-08-30T06:01:43;18.40;99.90
21559;DHT22;10940;48.890;8.240;2022-08-30T06:04:10;18.50;99.90
21559;DHT22;10940;48.890;8.240;2022-08-30T06:06:38;18.60;99.90
21559;DHT22;10940;48.890;8.240;2022-08-30T06:09:05;18.70;99.90
21559;DHT22;10940;48.890;8.240;2022-08-30T06:11:31;18.70;99.90
21559;DHT22;10940;48.890;8.240;2022-08-30T06:13:57;18.80;99.90
21559;DHT22;10940;48.890;8.240;2022-08-30T06:16:25;18.90;99.90
21559;DHT22;10940;48.890;8.240;2022-08-30T06:18:52;19.00;99.90
21559;DHT22;10940;48.890;8.240;2022-08-30T06:21:27;19.10;99.90
21559;DHT22;10940;48.890;8.240;2022-08-30T06:23:54;19.20;99.90
21559;DHT22;10940;48.890;8.240;2022-08-30T06:26:20;19.30;99.90
21559;DHT22;10940;48.890;8.240;2022-08-30T06:28:46;19.40;99.90
21559;DHT22;10940;48.890;8.240;2022-08-30T06:31:14;19.50;99.90
21559;DHT22;10940;48.890;8.240;2022-08-30T06:33:40;19.60;99.90
21559;DHT22;10940;48.890;8.240;2022-08-30T06:36:09;19.70;99.90
21559;DHT22;10940;48.890;8.240;2022-08-30T06:38:36;19.80;99.90
21559;DHT22;10940;48.890;8.240;2022-08-30T06:41:09;19.90;99.90
21559;DHT22;10940;48.890;8.240;2022-08-30T06:43:35;20.00;99.90
21559;DHT22;10940;48.890;8.240;2022-08-30T06:46:03;20.20;99.90
21559;DHT22;10940;48.890;8.240;2022-08-30T06:48:28;20.30;99.90
21559;DHT22;10940;48.890;8.240;2022-08-30T06:50:54;20.40;99.90
21559;DHT22;10940;48.890;8.240;2022-08-30T06:53:20;20.50;99.90
21559;DHT22;10940;48.890;8.240;2022-08-30T06:56:04;20.50;99.90
21559;DHT22;10940;48.890;8.240;2022-08-30T06:58:32;20.60;99.90
21559;DHT22;10940;48.890;8.240;2022-08-30T07:00:57;20.70;99.90
21559;DHT22;10940;48.890;8.240;2022-08-30T07:03:23;20.80;99.90
21559;DHT22;10940;48.890;8.240;2022-08-30T07:05:52;20.90;99.90
21559;DHT22;10940;48.890;8.240;2022-08-30T07:08:18;21.00;99.90
21559;DHT22;10940;48.890;8.240;2022-08-30T07:10:43;21.10;99.90
21559;DHT22;10940;48.890;8.240;2022-08-30T07:13:10;21.20;99.90
21559;DHT22;10940;48.890;8.240;2022-08-30T07:15:40;21.30;99.90
21559;DHT22;10940;48.890;8.240;2022-08-30T07:18:07;21.40;99.90
21559;DHT22;10940;48.890;8.240;2022-08-30T07:20:51;21.40;99.90
21559;DHT22;10940;48.890;8.240;2022-08-30T07:23:17;21.50;99.90
21559;DHT22;10940;48.890;8.240;2022-08-30T07:25:42;21.60;99.90
21559;DHT22;10940;48.890;8.240;2022-08-30T07:28:10;21.60;99.90
21559;DHT22;10940;48.890;8.240;2022-08-30T07:30:36;21.70;99.90
21559;DHT22;10940;48.890;8.240;2022-08-30T07:33:03;21.80;99.90
21559;DHT22;10940;48.890;8.240;2022-08-30T07:35:29;21.90;99.90
21559;DHT22;10940;48.890;8.240;2022-08-30T07:37:56;22.00;99.90
21559;DHT22;10940;48.890;8.240;2022-08-30T07:40:21;22.10;99.90
21559;DHT22;10940;48.890;8.240;2022-08-30T07:42:47;22.20;99.90
21559;DHT22;10940;48.890;8.240;2022-08-30T07:45:12;22.40;99.90
21559;DHT22;10940;48.890;8.240;2022-08-30T07:47:38;22.50;99.90
21559;DHT22;10940;48.890;8.240;2022-08-30T07:50:05;22.60;99.90
21559;DHT22;10940;48.890;8.240;2022-08-30T07:52:31;22.70;99.90
21559;DHT22;10940;48.890;8.240;2022-08-30T07:54:57;22.80;99.90
21559;DHT22;10940;48.890;8.240;2022-08-30T07:57:23;22.90;99.90
21559;DHT22;10940;48.890;8.240;2022-08-30T07:59:49;23.10;99.90
21559;DHT22;10940;48.890;8.240;2022-08-30T08:02:15;23.10;99.90
21559;DHT22;10940;48.890;8.240;2022-08-30T08:04:41;23.20;99.90
21559;DHT22;10940;48.890;8.240;2022-08-30T08:07:06;23.30;99.90
21559;DHT22;10940;48.890;8.240;2022-08-30T08:09:32;23.40;99.90
21559;DHT22;10940;48.890;8.240;2022-08-30T08:12:02;23.60;99.90
21559;DHT22;10940;48.890;8.240;2022-08-30T08:14:27;23.60;99.90
21559;DHT22;10940;48.890;8.240;2022-08-30T08:16:53;23.70;99.90
21559;DHT22;10940;48.890;8.240;2022-08-30T08:19:19;23.80;99.90
21559;DHT22;10940;48.890;8.240;2022-08-30T08:21:44;24.00;99.90
21559;DHT22;10940;48.890;8.240;2022-08-30T08:24:10;24.00;99.90
21559;DHT22;10940;48.890;8.240;2022-08-30T08:26:37;24.10;99.90
21559;DHT22;10940;48.890;8.240;2022-08-30T08:29:04;24.20;99.90
21559;DHT22;10940;48.890;8.240;2022-08-30T08:31:30;24.20;99.90
21559;DHT22;10940;48.890;8.240;2022-08-30T08:33:56;24.20;99.90
21559;DHT22;10940;48.890;8.240;2022-08-30T08:36:24;24.40;99.90
21559;DHT22;10940;48.890;8.240;2022-08-30T08:38:50;24.40;99.90
21559;DHT22;10940;48.890;8.240;2022-08-30T08:41:35;24.50;99.90
21559;DHT22;10940;48.890;8.240;2022-08-30T08:44:13;24.50;99.90
21559;DHT22;10940;48.890;8.240;2022-08-30T08:46:42;24.50;99.90
21559;DHT22;10940;48.890;8.240;2022-08-30T08:49:08;24.60;99.90
21559;DHT22;10940;48.890;8.240;2022-08-30T08:51:37;24.60;99.90
21559;DHT22;10940;48.890;8.240;2022-08-30T08:54:56;24.60;99.90
21559;DHT22;10940;48.890;8.240;2022-08-30T08:57:23;24.70;99.90
21559;DHT22;10940;48.890;8.240;2022-08-30T08:59:49;24.70;99.90
21559;DHT22;10940;48.890;8.240;2022-08-30T09:02:38;24.80;99.90
21559;DHT22;10940;48.890;8.240;2022-08-30T09:05:08;24.90;99.90
21559;DHT22;10940;48.890;8.240;2022-08-30T09:07:36;25.10;99.90
21559;DHT22;10940;48.890;8.240;2022-08-30T09:10:04;25.20;99.90
21559;DHT22;10940;48.890;8.240;2022-08-30T09:12:31;25.30;99.90
21559;DHT22;10940;48.890;8.240;2022-08-30T09:15:11;25.50;99.90
21559;DHT22;10940;48.890;8.240;2022-08-30T09:22:54;25.70;99.90
21559;DHT22;10940;48.890;8.240;2022-08-30T09:25:30;25.80;99.90
21559;DHT22;10940;48.890;8.240;2022-08-30T09:28:13;25.90;99.90
21559;DHT22;10940;48.890;8.240;2022-08-30T09:30:59;26.00;99.90
21559;DHT22;10940;48.890;8.240;2022-08-30T09:33:25;26.20;99.90
21559;DHT22;10940;48.890;8.240;2022-08-30T09:35:51;26.30;99.90
21559;DHT22;10940;48.890;8.240;2022-08-30T09:38:20;26.30;99.90
21559;DHT22;10940;48.890;8.240;2022-08-30T09:40:52;26.50;99.90
21559;DHT22;10940;48.890;8.240;2022-08-30T09:43:27;26.60;99.90
21559;DHT22;10940;48.890;8.240;2022-08-30T09:48:42;26.80;99.90
21559;DHT22;10940;48.890;8.240;2022-08-30T09:56:38;27.10;99.80
21559;DHT22;10940;48.890;8.240;2022-08-30T10:08:00;27.30;99.30
21559;DHT22;10940;48.890;8.240;2022-08-30T10:13:25;27.50;99.30
21559;DHT22;10940;48.890;8.240;2022-08-30T10:16:14;27.60;99.30
21559;DHT22;10940;48.890;8.240;2022-08-30T10:21:45;27.80;99.00
21559;DHT22;10940;48.890;8.240;2022-08-30T10:24:18;27.80;98.20
21559;DHT22;10940;48.890;8.240;2022-08-30T10:26:51;27.80;98.40
21559;DHT22;10940;48.890;8.240;2022-08-30T10:29:22;27.80;99.10
21559;DHT22;10940;48.890;8.240;2022-08-30T10:32:04;28.00;99.70
21559;DHT22;10940;48.890;8.240;2022-08-30T10:34:36;28.10;99.50
21559;DHT22;10940;48.890;8.240;2022-08-30T10:37:10;28.20;98.10
21559;DHT22;10940;48.890;8.240;2022-08-30T10:39:46;28.30;97.60
21559;DHT22;10940;48.890;8.240;2022-08-30T10:42:20;28.40;97.00
21559;DHT22;10940;48.890;8.240;2022-08-30T10:44:50;28.40;97.20
21559;DHT22;10940;48.890;8.240;2022-08-30T10:47:26;28.40;97.20
21559;DHT22;10940;48.890;8.240;2022-08-30T10:50:09;28.60;97.00
21559;DHT22;10940;48.890;8.240;2022-08-30T10:55:20;28.60;96.80
21559;DHT22;10940;48.890;8.240;2022-08-30T10:57:49;28.60;96.60
21559;DHT22;10940;48.890;8.240;2022-08-30T11:00:23;28.70;96.30
21559;DHT22;10940;48.890;8.240;2022-08-30T11:03:13;28.70;96.00
21559;DHT22;10940;48.890;8.240;2022-08-30T11:08:58;28.80;97.00
21559;DHT22;10940;48.890;8.240;2022-08-30T11:14:04;28.80;96.10
21559;DHT22;10940;48.890;8.240;2022-08-30T11:16:42;28.80;96.80
21559;DHT22;10940;48.890;8.240;2022-08-30T11:21:47;29.20;95.60
21559;DHT22;10940;48.890;8.240;2022-08-30T11:24:16;29.40;97.20
21559;DHT22;10940;48.890;8.240;2022-08-30T11:37:29;29.60;94.00
21559;DHT22;10940;48.890;8.240;2022-08-30T11:40:00;29.50;94.30
21559;DHT22;10940;48.890;8.240;2022-08-30T11:42:39;29.40;94.50
21559;DHT22;10940;48.890;8.240;2022-08-30T11:48:04;29.20;94.70
21559;DHT22;10940;48.890;8.240;2022-08-30T11:50:53;29.10;95.20
21559;DHT22;10940;48.890;8.240;2022-08-30T11:56:49;29.10;96.90
21559;DHT22;10940;48.890;8.240;2022-08-30T11:59:28;29.10;94.70
21559;DHT22;10940;48.890;8.240;2022-08-30T12:01:55;29.30;94.20
21559;DHT22;10940;48.890;8.240;2022-08-30T12:04:26;29.50;94.40
21559;DHT22;10940;48.890;8.240;2022-08-30T12:07:01;29.70;95.40
21559;DHT22;10940;48.890;8.240;2022-08-30T12:12:09;30.30;93.60
21559;DHT22;10940;48.890;8.240;2022-08-30T12:14:53;30.50;93.30
21559;DHT22;10940;48.890;8.240;2022-08-30T12:17:30;30.60;92.80
21559;DHT22;10940;48.890;8.240;2022-08-30T12:20:37;30.40;91.90
21559;DHT22;10940;48.890;8.240;2022-08-30T12:23:33;30.50;94.30
21559;DHT22;10940;48.890;8.240;2022-08-30T12:28:37;30.70;92.80
21559;DHT22;10940;48.890;8.240;2022-08-30T12:31:16;30.80;92.40
21559;DHT22;10940;48.890;8.240;2022-08-30T12:34:14;30.80;91.70
21559;DHT22;10940;48.890;8.240;2022-08-30T12:37:08;30.90;91.70
21559;DHT22;10940;48.890;8.240;2022-08-30T12:39:41;30.90;93.20
21559;DHT22;10940;48.890;8.240;2022-08-30T12:44:38;31.00;91.80
21559;DHT22;10940;48.890;8.240;2022-08-30T12:47:05;31.00;92.60
21559;DHT22;10940;48.890;8.240;2022-08-30T12:49:34;31.20;92.10
21559;DHT22;10940;48.890;8.240;2022-08-30T12:54:53;31.50;91.00
21559;DHT22;10940;48.890;8.240;2022-08-30T12:57:42;31.50;90.10
21559;DHT22;10940;48.890;8.240;2022-08-30T13:00:10;31.40;91.00
21559;DHT22;10940;48.890;8.240;2022-08-30T13:02:48;31.40;90.40
21559;DHT22;10940;48.890;8.240;2022-08-30T13:08:20;31.40;90.60
21559;DHT22;10940;48.890;8.240;2022-08-30T13:11:03;31.60;89.20
21559;DHT22;10940;48.890;8.240;2022-08-30T13:13:37;31.60;90.00
21559;DHT22;10940;48.890;8.240;2022-08-30T13:16:09;31.60;90.00
21559;DHT22;10940;48.890;8.240;2022-08-30T13:18:35;31.60;90.10
21559;DHT22;10940;48.890;8.240;2022-08-30T13:21:27;31.80;90.80
21559;DHT22;10940;48.890;8.240;2022-08-30T13:23:58;32.00;88.10
21559;DHT22;10940;48.890;8.240;2022-08-30T13:26:25;32.10;87.50
21559;DHT22;10940;48.890;8.240;2022-08-30T13:28:57;32.20;90.60
21559;DHT22;10940;48.890;8.240;2022-08-30T13:31:24;32.30;88.20
21559;DHT22;10940;48.890;8.240;2022-08-30T13:33:50;32.40;87.20
21559;DHT22;10940;48.890;8.240;2022-08-30T13:36:24;32.50;89.30
21559;DHT22;10940;48.890;8.240;2022-08-30T13:38:52;32.60;90.10
21559;DHT22;10940;48.890;8.240;2022-08-30T13:41:18;32.70;90.00
21559;DHT22;10940;48.890;8.240;2022-08-30T13:43:45;32.60;86.80
21559;DHT22;10940;48.890;8.240;2022-08-30T13:46:12;32.60;86.10
21559;DHT22;10940;48.890;8.240;2022-08-30T13:48:39;32.60;85.80
21559;DHT22;10940;48.890;8.240;2022-08-30T13:51:05;32.50;84.80
21559;DHT22;10940;48.890;8.240;2022-08-30T13:53:30;32.50;87.40
21559;DHT22;10940;48.890;8.240;2022-08-30T13:55:56;32.50;85.40
21559;DHT22;10940;48.890;8.240;2022-08-30T13:58:25;32.50;85.90
21559;DHT22;10940;48.890;8.240;2022-08-30T14:00:51;32.20;86.70
21559;DHT22;10940;48.890;8.240;2022-08-30T14:03:16;32.30;84.50
21559;DHT22;10940;48.890;8.240;2022-08-30T14:05:42;32.40;84.40
21559;DHT22;10940;48.890;8.240;2022-08-30T14:08:10;32.50;83.90
21559;DHT22;10940;48.890;8.240;2022-08-30T14:10:37;32.50;84.70
21559;DHT22;10940;48.890;8.240;2022-08-30T14:13:03;32.50;85.30
21559;DHT22;10940;48.890;8.240;2022-08-30T14:15:33;32.40;85.20
21559;DHT22;10940;48.890;8.240;2022-08-30T14:17:59;32.40;87.90
21559;DHT22;10940;48.890;8.240;2022-08-30T14:20:24;32.40;86.10
21559;DHT22;10940;48.890;8.240;2022-08-30T14:22:50;32.50;83.90
21559;DHT22;10940;48.890;8.240;2022-08-30T14:25:16;32.40;84.60
21559;DHT22;10940;48.890;8.240;2022-08-30T14:27:41;32.30;86.30
21559;DHT22;10940;48.890;8.240;2022-08-30T14:30:07;32.20;82.20
21559;DHT22;10940;48.890;8.240;2022-08-30T14:32:33;32.00;83.70
21559;DHT22;10940;48.890;8.240;2022-08-30T14:34:58;32.00;84.10
21559;DHT22;10940;48.890;8.240;2022-08-30T14:37:24;31.80;85.30
21559;DHT22;10940;48.890;8.240;2022-08-30T14:39:50;31.80;86.20
21559;DHT22;10940;48.890;8.240;2022-08-30T14:42:15;31.60;87.20
21559;DHT22;10940;48.890;8.240;2022-08-30T14:44:41;31.50;85.20
21559;DHT22;10940;48.890;8.240;2022-08-30T14:47:07;31.30;84.50
21559;DHT22;10940;48.890;8.240;2022-08-30T14:49:33;31.00;86.40
21559;DHT22;10940;48.890;8.240;2022-08-30T14:51:58;30.90;87.50
21559;DHT22;10940;48.890;8.240;2022-08-30T14:54:27;30.90;85.90
21559;DHT22;10940;48.890;8.240;2022-08-30T14:56:53;30.80;88.10
21559;DHT22;10940;48.890;8.240;2022-08-30T14:59:19;30.80;89.40
21559;DHT22;10940;48.890;8.240;2022-08-30T15:01:45;30.70;86.00
21559;DHT22;10940;48.890;8.240;2022-08-30T15:04:11;30.60;87.70
21559;DHT22;10940;48.890;8.240;2022-08-30T15:06:39;30.40;89.90
21559;DHT22;10940;48.890;8.240;2022-08-30T15:09:07;30.20;92.60
21559;DHT22;10940;48.890;8.240;2022-08-30T15:11:33;30.00;90.00
21559;DHT22;10940;48.890;8.240;2022-08-30T15:13:59;30.00;90.70
21559;DHT22;10940;48.890;8.240;2022-08-30T15:16:28;29.90;90.80
21559;DHT22;10940;48.890;8.240;2022-08-30T15:18:56;29.90;90.90
21559;DHT22;10940;48.890;8.240;2022-08-30T15:21:24;29.90;89.60
21559;DHT22;10940;48.890;8.240;2022-08-30T15:23:50;29.80;88.80
21559;DHT22;10940;48.890;8.240;2022-08-30T15:26:16;29.80;90.40
21559;DHT22;10940;48.890;8.240;2022-08-30T15:28:42;29.90;90.80
21559;DHT22;10940;48.890;8.240;2022-08-30T15:31:08;29.90;90.20
21559;DHT22;10940;48.890;8.240;2022-08-30T15:33:33;29.90;90.50
21559;DHT22;10940;48.890;8.240;2022-08-30T15:36:00;30.00;90.60
21559;DHT22;10940;48.890;8.240;2022-08-30T15:38:27;30.10;88.60
21559;DHT22;10940;48.890;8.240;2022-08-30T15:40:55;30.10;91.30
21559;DHT22;10940;48.890;8.240;2022-08-30T15:43:20;30.00;92.50
21559;DHT22;10940;48.890;8.240;2022-08-30T15:45:46;29.80;91.00
21559;DHT22;10940;48.890;8.240;2022-08-30T15:48:11;29.60;90.70
21559;DHT22;10940;48.890;8.240;2022-08-30T15:50:37;29.30;90.00
21559;DHT22;10940;48.890;8.240;2022-08-30T15:53:03;29.20;90.60
21559;DHT22;10940;48.890;8.240;2022-08-30T15:55:31;29.10;90.00
21559;DHT22;10940;48.890;8.240;2022-08-30T15:57:56;29.00;91.60
21559;DHT22;10940;48.890;8.240;2022-08-30T16:00:22;28.90;92.80
21559;DHT22;10940;48.890;8.240;2022-08-30T16:02:47;28.90;91.50
21559;DHT22;10940;48.890;8.240;2022-08-30T16:05:14;28.90;92.60
21559;DHT22;10940;48.890;8.240;2022-08-30T16:07:42;28.80;92.10
21559;DHT22;10940;48.890;8.240;2022-08-30T16:10:11;28.60;91.20
21559;DHT22;10940;48.890;8.240;2022-08-30T16:12:37;28.50;91.50
21559;DHT22;10940;48.890;8.240;2022-08-30T16:15:03;28.60;91.70
21559;DHT22;10940;48.890;8.240;2022-08-30T16:17:28;28.70;91.30
21559;DHT22;10940;48.890;8.240;2022-08-30T16:19:54;28.70;90.80
21559;DHT22;10940;48.890;8.240;2022-08-30T16:22:19;28.70;91.20
21559;DHT22;10940;48.890;8.240;2022-08-30T16:24:46;28.80;90.00
21559;DHT22;10940;48.890;8.240;2022-08-30T16:27:12;28.90;90.30
21559;DHT22;10940;48.890;8.240;2022-08-30T16:29:37;28.90;90.10
21559;DHT22;10940;48.890;8.240;2022-08-30T16:32:03;28.90;90.60
21559;DHT22;10940;48.890;8.240;2022-08-30T16:34:28;28.90;90.20
21559;DHT22;10940;48.890;8.240;2022-08-30T16:36:54;28.90;90.40
21559;DHT22;10940;48.890;8.240;2022-08-30T16:39:19;28.80;90.30
21559;DHT22;10940;48.890;8.240;2022-08-30T16:41:45;28.70;89.40
21559;DHT22;10940;48.890;8.240;2022-08-30T16:44:12;28.70;91.00
21559;DHT22;10940;48.890;8.240;2022-08-30T16:46:38;28.60;90.60
21559;DHT22;10940;48.890;8.240;2022-08-30T16:49:04;28.40;91.10